Time;durP1;ratioP1;P1;durP2;ratioP2;P2;SDS_P1;SDS_P2;PMS_P1;PMS_P2;Temp;Humidity;BMP_temperature;BMP_pressure;BME280_temperature;BME280_humidity;BME280_pressure;Samples;Min_cycle;Max_cycle;Signal;HPM_P1;HPM_P2
2020/12/01 00:04:51;;;;;;;36.47;23.13;;;;;;;-144.15;0.00;65763.66;10322170;28;20084;-66
2020/12/01 00:09:49;;;;;;;45.42;26.92;;;;;;;-144.15;0.00;65763.66;10323109;28;20401;-66
2020/12/01 00:14:47;;;;;;;32.22;22.83;;;;;;;-144.15;0.00;65763.66;10322733;28;20428;-66
2020/12/01 00:19:44;;;;;;;28.10;20.95;;;;;;;-144.15;0.00;65763.66;10322745;28;20041;-66
2020/12/01 00:24:43;;;;;;;30.92;21.70;;;;;;;-144.15;0.00;65763.66;10320716;28;20048;-65
2020/12/01 00:29:41;;;;;;;24.35;17.42;;;;;;;-144.15;0.00;65763.66;10322194;28;20072;-64
2020/12/01 00:34:39;;;;;;;24.92;17.13;;;;;;;-144.15;0.00;65763.66;10322037;28;20617;-65
2020/12/01 00:39:37;;;;;;;30.05;22.17;;;;;;;-144.15;0.00;65763.66;10321712;28;20417;-65
2020/12/01 00:44:36;;;;;;;40.13;25.67;;;;;;;-144.15;0.00;65763.66;10321870;28;20497;-65
2020/12/01 00:49:33;;;;;;;35.15;23.25;;;;;;;-144.15;0.00;65763.66;10321766;28;20052;-65
2020/12/01 00:54:31;;;;;;;29.17;21.10;;;;;;;-144.15;0.00;65763.66;10320677;28;20083;-66
2020/12/01 00:59:29;;;;;;;26.02;18.83;;;;;;;-144.15;0.00;65763.66;10318956;28;20056;-66
2020/12/01 01:04:29;;;;;;;23.08;17.63;;;;;;;-144.15;0.00;65763.66;10319542;28;20416;-66
2020/12/01 01:09:27;;;;;;;21.58;16.02;;;;;;;-144.15;0.00;65763.66;10320808;28;20402;-66
2020/12/01 01:14:25;;;;;;;31.48;20.75;;;;;;;-144.15;0.00;65763.66;10320317;28;20070;-66
2020/12/01 01:19:23;;;;;;;18.63;13.82;;;;;;;-144.15;0.00;65763.66;10320471;28;20525;-66
2020/12/01 01:24:22;;;;;;;26.70;18.55;;;;;;;-144.15;0.00;65763.66;10318169;28;20072;-64
2020/12/01 01:29:20;;;;;;;21.63;14.20;;;;;;;-144.15;0.00;65763.66;10317540;28;20049;-66
2020/12/01 01:34:18;;;;;;;21.45;15.00;;;;;;;-144.15;0.00;65763.66;10318602;28;20520;-66
2020/12/01 01:39:16;;;;;;;23.50;15.50;;;;;;;-144.15;0.00;65763.66;10319311;28;20075;-66
2020/12/01 01:44:20;;;;;;;26.02;17.92;;;;;;;-144.15;0.00;65763.66;10318411;28;20088;-65
2020/12/01 01:49:23;;;;;;;25.40;17.13;;;;;;;-144.15;0.00;65763.66;10317485;28;20048;-66
2020/12/01 01:54:22;;;;;;;27.80;18.85;;;;;;;-144.15;0.00;65763.66;10319049;28;20041;-67
2020/12/01 01:59:23;;;;;;;20.25;14.00;;;;;;;-144.15;0.00;65763.66;10317941;28;20076;-67
2020/12/01 02:04:21;;;;;;;20.52;13.90;;;;;;;-144.15;0.00;65763.66;10318722;28;20504;-65
2020/12/01 02:09:22;;;;;;;24.70;15.00;;;;;;;-144.15;0.00;65763.66;10318530;28;20075;-65
2020/12/01 02:14:24;;;;;;;22.42;16.92;;;;;;;-144.15;0.00;65763.66;10317176;28;20052;-66
2020/12/01 02:19:25;;;;;;;22.38;17.67;;;;;;;-144.15;0.00;65763.66;10318155;28;20079;-65
2020/12/01 02:24:27;;;;;;;21.75;17.05;;;;;;;-144.15;0.00;65763.66;10317181;28;20079;-66
2020/12/01 02:29:28;;;;;;;20.08;15.68;;;;;;;-144.15;0.00;65763.66;10317722;28;20068;-65
2020/12/01 02:34:32;;;;;;;22.88;17.35;;;;;;;-144.15;0.00;65763.66;10317697;28;20485;-66
2020/12/01 02:39:30;;;;;;;27.23;19.15;;;;;;;-144.15;0.00;65763.66;10317431;28;20080;-67
2020/12/01 02:44:29;;;;;;;24.52;16.63;;;;;;;-144.15;0.00;65763.66;10317387;28;20095;-67
2020/12/01 02:49:27;;;;;;;25.75;18.95;;;;;;;-144.15;0.00;65763.66;10317452;28;20503;-66
2020/12/01 02:54:25;;;;;;;27.73;20.35;;;;;;;-144.15;0.00;65763.66;10317337;28;20052;-65
2020/12/01 02:59:23;;;;;;;24.05;18.20;;;;;;;-144.15;0.00;65763.66;10316118;28;20049;-65
2020/12/01 03:04:21;;;;;;;19.15;15.50;;;;;;;-144.15;0.00;65763.66;10316474;28;20110;-66
2020/12/01 03:09:20;;;;;;;23.92;17.42;;;;;;;-144.15;0.00;65763.66;10316965;28;20040;-66
2020/12/01 03:14:21;;;;;;;18.40;13.93;;;;;;;-144.15;0.00;65763.66;10316958;28;20501;-66
2020/12/01 03:19:19;;;;;;;24.58;19.15;;;;;;;-144.15;0.00;65763.66;10317132;28;20048;-66
2020/12/01 03:24:18;;;;;;;23.20;17.00;;;;;;;-144.15;0.00;65763.66;10315909;28;20513;-66
2020/12/01 03:29:16;;;;;;;20.73;15.43;;;;;;;-144.15;0.00;65763.66;10315377;28;20045;-66
2020/12/01 03:34:13;;;;;;;19.38;13.88;;;;;;;-144.15;0.00;65763.66;10314843;28;20045;-66
2020/12/01 03:39:12;;;;;;;19.02;15.57;;;;;;;-144.15;0.00;65763.66;10323779;28;20045;-66
2020/12/01 03:44:10;;;;;;;21.75;17.00;;;;;;;-144.15;0.00;65763.66;10324241;28;20080;-66
2020/12/01 03:49:08;;;;;;;23.40;16.75;;;;;;;-144.15;0.00;65763.66;10323934;28;20467;-66
2020/12/01 03:54:06;;;;;;;23.58;16.80;;;;;;;-144.15;0.00;65763.66;10322575;28;20071;-66
2020/12/01 03:59:04;;;;;;;27.13;21.27;;;;;;;-144.15;0.00;65763.66;10322466;28;20052;-66
2020/12/01 04:04:02;;;;;;;20.58;15.55;;;;;;;-144.15;0.00;65763.66;10322995;28;20072;-66
2020/12/01 04:09:02;;;;;;;18.52;15.00;;;;;;;-144.15;0.00;65763.66;10322141;28;20405;-66
2020/12/01 04:14:00;;;;;;;21.90;17.02;;;;;;;-144.15;0.00;65763.66;10322629;28;20449;-66
2020/12/01 04:18:58;;;;;;;18.65;15.75;;;;;;;-144.15;0.00;65763.66;10321213;28;20488;-66
2020/12/01 04:23:56;;;;;;;22.30;17.80;;;;;;;-144.15;0.00;65763.66;10322531;28;20091;-66
2020/12/01 04:28:54;;;;;;;23.38;19.45;;;;;;;-144.15;0.00;65763.66;10322287;28;20044;-67
2020/12/01 04:33:52;;;;;;;37.30;24.50;;;;;;;-144.15;0.00;65763.66;10321360;28;20079;-66
2020/12/01 04:38:49;;;;;;;23.05;19.27;;;;;;;-144.15;0.00;65763.66;10321596;28;20044;-66
2020/12/01 04:43:54;;;;;;;44.65;22.83;;;;;;;-144.15;0.00;65763.66;10318302;28;20083;-66
2020/12/01 04:48:57;;;;;;;23.75;17.40;;;;;;;-144.15;0.00;65763.66;10319108;28;20512;-66
2020/12/01 04:54:20;;;;;;;29.05;21.75;;;;;;;-144.15;0.00;65763.66;10319699;28;20102;-66
2020/12/01 04:59:47;;;;;;;31.80;22.65;;;;;;;-144.15;0.00;65763.66;10319259;28;20096;-66
2020/12/01 05:04:52;;;;;;;27.92;21.17;;;;;;;-144.15;0.00;65763.66;10319583;28;20079;-66
2020/12/01 05:09:54;;;;;;;45.43;29.90;;;;;;;-144.15;0.00;65763.66;10319558;28;20044;-66
2020/12/01 05:14:57;;;;;;;41.72;30.95;;;;;;;-144.15;0.00;65763.66;10319322;28;20086;-65
2020/12/01 05:19:54;;;;;;;40.10;30.08;;;;;;;-144.15;0.00;65763.66;10319065;28;20040;-66
2020/12/01 05:24:54;;;;;;;58.92;43.45;;;;;;;-144.15;0.00;65763.66;10317815;28;20076;-66
2020/12/01 05:30:06;;;;;;;45.72;32.40;;;;;;;-144.15;0.00;65763.66;10317049;28;20044;-66
2020/12/01 05:35:26;;;;;;;56.15;38.58;;;;;;;-144.15;0.00;65763.66;10318472;28;20056;-66
2020/12/01 05:40:25;;;;;;;56.15;41.42;;;;;;;-144.15;0.00;65763.66;10311618;28;20052;-64
2020/12/01 05:45:29;;;;;;;44.22;32.65;;;;;;;-144.15;0.00;65763.66;10317624;28;20080;-64
2020/12/01 05:50:27;;;;;;;34.00;25.90;;;;;;;-144.15;0.00;65763.66;10317696;28;20045;-64
2020/12/01 05:55:26;;;;;;;103.47;64.88;;;;;;;-144.15;0.00;65763.66;10317445;28;20072;-64
2020/12/01 06:00:29;;;;;;;72.70;48.72;;;;;;;-144.15;0.00;65763.66;10315565;28;20417;-64
2020/12/01 06:05:27;;;;;;;53.58;34.72;;;;;;;-144.15;0.00;65763.66;10317124;28;20090;-65
2020/12/01 06:10:33;;;;;;;32.50;23.75;;;;;;;-144.15;0.00;65763.66;10317007;28;20044;-64
2020/12/01 06:15:33;;;;;;;44.22;30.45;;;;;;;-144.15;0.00;65763.66;10316069;28;20551;-65
2020/12/01 06:20:36;;;;;;;59.05;37.05;;;;;;;-144.15;0.00;65763.66;10316712;28;20489;-65
2020/12/01 06:26:07;;;;;;;66.72;46.13;;;;;;;-144.15;0.00;65763.66;10316309;28;20079;-65
2020/12/01 06:31:41;;;;;;;72.38;48.67;;;;;;;-144.15;0.00;65763.66;10310313;28;20091;-65
2020/12/01 06:37:13;;;;;;;81.45;53.22;;;;;;;-144.15;0.00;65763.66;10316371;28;20059;-65
2020/12/01 06:42:15;;;;;;;122.43;68.90;;;;;;;-144.15;0.00;65763.66;10315232;28;20044;-65
2020/12/01 06:47:14;;;;;;;139.10;85.57;;;;;;;-144.15;0.00;65763.66;10315145;28;20075;-65
2020/12/01 06:52:14;;;;;;;119.18;64.22;;;;;;;-144.15;0.00;65763.66;10314783;28;20083;-65
2020/12/01 06:57:27;;;;;;;54.67;37.17;;;;;;;-144.15;0.00;65763.66;10314436;28;20422;-65
2020/12/01 07:02:29;;;;;;;241.85;134.35;;;;;;;-144.15;0.00;65763.66;10313303;28;20041;-66
2020/12/01 07:07:30;;;;;;;180.20;76.47;;;;;;;-144.15;0.00;65763.66;10315078;28;20110;-65
2020/12/01 07:12:38;;;;;;;105.70;50.85;;;;;;;-144.15;0.00;65763.66;10314154;28;20076;-65
2020/12/01 07:17:47;;;;;;;79.10;41.13;;;;;;;-144.15;0.00;65763.66;10314376;28;20053;-65
2020/12/01 07:22:52;;;;;;;149.18;98.07;;;;;;;-144.15;0.00;65763.66;10314371;28;20493;-66
2020/12/01 07:28:10;;;;;;;170.45;87.68;;;;;;;-144.15;0.00;65763.66;10313568;28;20505;-66
2020/12/01 07:33:14;;;;;;;134.05;69.18;;;;;;;-144.15;0.00;65763.66;10313980;28;20087;-65
2020/12/01 07:38:27;;;;;;;82.32;35.20;;;;;;;-144.15;0.00;65763.66;10314389;28;20068;-65
2020/12/01 07:43:32;;;;;;;127.85;69.90;;;;;;;-144.15;0.00;65763.66;10314701;28;20052;-65
2020/12/01 07:48:31;;;;;;;61.25;32.35;;;;;;;-144.15;0.00;65763.66;10314152;28;20071;-65
2020/12/01 07:53:29;;;;;;;103.03;59.95;;;;;;;-144.15;0.00;65763.66;10313964;28;20072;-65
2020/12/01 07:58:28;;;;;;;131.40;80.07;;;;;;;-144.15;0.00;65763.66;10312037;28;20063;-63
2020/12/01 08:03:29;;;;;;;130.07;50.45;;;;;;;-144.15;0.00;65763.66;10313798;28;20099;-65
2020/12/01 08:08:32;;;;;;;111.28;40.17;;;;;;;-144.15;0.00;65763.66;10313124;28;20087;-65
2020/12/01 08:13:32;;;;;;;106.28;51.33;;;;;;;-144.15;0.00;65763.66;10313580;28;20061;-65
2020/12/01 08:18:34;;;;;;;125.35;54.55;;;;;;;-144.15;0.00;65763.66;10313509;28;20051;-66
2020/12/01 08:23:33;;;;;;;94.88;72.35;;;;;;;-144.15;0.00;65763.66;10315713;28;20067;-65
2020/12/01 08:28:38;;;;;;;73.10;42.90;;;;;;;-144.15;0.00;65763.66;10319408;28;20083;-65
2020/12/01 08:34:02;;;;;;;62.33;27.88;;;;;;;-144.15;0.00;65763.66;10320573;28;20047;-65
2020/12/01 08:39:24;;;;;;;94.15;31.27;;;;;;;-144.15;0.00;65763.66;10319720;28;20146;-66
2020/12/01 08:44:33;;;;;;;47.47;30.90;;;;;;;-144.15;0.00;65763.66;10319780;28;20036;-65
2020/12/01 08:49:43;;;;;;;55.75;30.27;;;;;;;-144.15;0.00;65763.66;10318864;28;20048;-65
2020/12/01 08:54:51;;;;;;;61.25;40.70;;;;;;;-144.15;0.00;65763.66;10319858;28;20060;-66
2020/12/01 08:59:53;;;;;;;54.00;33.10;;;;;;;-144.15;0.00;65763.66;10319067;28;20513;-66
2020/12/01 09:05:00;;;;;;;161.75;102.85;;;;;;;-144.15;0.00;65763.66;10319513;28;20079;-65
2020/12/01 09:10:10;;;;;;;132.68;79.20;;;;;;;-144.15;0.00;65763.66;10319423;28;20052;-65
2020/12/01 09:15:31;;;;;;;63.85;43.83;;;;;;;-144.15;0.00;65763.66;10318454;28;20497;-64
2020/12/01 09:25:46;;;;;;;;;;;;;;;-144.15;0.00;65763.66;10310185;28;20472;-64
2020/12/01 09:30:44;;;;;;;89.45;48.63;;;;;;;-144.15;0.00;65763.66;10317904;28;19920;-62
2020/12/01 09:35:43;;;;;;;93.03;42.08;;;;;;;-144.15;0.00;65763.66;10317312;28;20420;-62
2020/12/01 09:40:41;;;;;;;71.28;36.72;;;;;;;-144.15;0.00;65763.66;10318167;28;20049;-62
2020/12/01 09:45:41;;;;;;;118.55;54.50;;;;;;;-144.15;0.00;65763.66;10316876;28;20083;-61
2020/12/01 09:50:40;;;;;;;85.95;32.42;;;;;;;-144.15;0.00;65763.66;10317695;28;20073;-63
2020/12/01 09:55:51;;;;;;;165.23;51.92;;;;;;;-144.15;0.00;65763.66;10317670;28;20052;-63
2020/12/01 10:02:58;;;;;;;52.28;24.95;;;;;;;-144.15;0.00;65763.66;10316766;28;20085;-61
2020/12/01 10:38:09;;;;;;;176.15;81.80;;;;;;;-144.15;0.00;65763.66;10315810;28;20056;-61
2020/12/01 10:43:08;;;;;;;69.20;36.30;;;;;;;-144.15;0.00;65763.66;10315250;28;20055;-61
2020/12/01 10:48:06;;;;;;;82.95;42.88;;;;;;;-144.15;0.00;65763.66;10314233;28;20068;-62
2020/12/01 10:53:03;;;;;;;114.25;59.85;;;;;;;-144.15;0.00;65763.66;10315028;28;20048;-63
2020/12/01 10:58:01;;;;;;;91.72;57.88;;;;;;;-144.15;0.00;65763.66;10313612;28;20103;-62
2020/12/01 11:03:00;;;;;;;73.18;40.47;;;;;;;-144.15;0.00;65763.66;10314959;28;20087;-62
2020/12/01 11:08:00;;;;;;;62.95;38.15;;;;;;;-144.15;0.00;65763.66;10313183;28;20076;-62
2020/12/01 11:12:58;;;;;;;57.13;36.28;;;;;;;-144.15;0.00;65763.66;10314751;28;20079;-62
2020/12/01 11:17:56;;;;;;;79.45;46.60;;;;;;;-144.15;0.00;65763.66;10314583;28;20071;-62
2020/12/01 11:22:54;;;;;;;84.22;48.47;;;;;;;-144.15;0.00;65763.66;10314659;28;20045;-61
2020/12/01 11:27:53;;;;;;;110.40;59.50;;;;;;;-144.15;0.00;65763.66;10314660;28;20501;-62
2020/12/01 11:32:51;;;;;;;46.45;28.15;;;;;;;-144.15;0.00;65763.66;10314227;28;20036;-61
2020/12/01 11:37:49;;;;;;;71.07;38.92;;;;;;;-144.15;0.00;65763.66;10313893;28;20075;-61
2020/12/01 11:42:48;;;;;;;104.25;52.72;;;;;;;-144.15;0.00;65763.66;10314055;28;20075;-63
2020/12/01 11:47:48;;;;;;;83.80;41.38;;;;;;;-144.15;0.00;65763.66;10313945;28;20497;-63
2020/12/01 11:52:46;;;;;;;137.77;80.53;;;;;;;-144.15;0.00;65763.66;10313935;28;20044;-63
2020/12/01 11:57:54;;;;;;;112.57;60.25;;;;;;;-144.15;0.00;65763.66;10315780;28;20521;-63
2020/12/01 12:02:52;;;;;;;128.75;69.53;;;;;;;-144.15;0.00;65763.66;10321760;28;20490;-62
2020/12/01 12:07:50;;;;;;;74.43;40.95;;;;;;;-144.15;0.00;65763.66;10320672;28;20193;-63
2020/12/01 12:12:49;;;;;;;79.35;38.35;;;;;;;-144.15;0.00;65763.66;10321465;28;20513;-63
2020/12/01 12:17:48;;;;;;;40.45;25.83;;;;;;;-144.15;0.00;65763.66;10321077;28;20044;-61
2020/12/01 12:22:46;;;;;;;42.25;22.67;;;;;;;-144.15;0.00;65763.66;10320700;28;20044;-62
2020/12/01 12:27:43;;;;;;;59.13;32.83;;;;;;;-144.15;0.00;65763.66;10320328;28;20076;-61
2020/12/01 12:32:41;;;;;;;61.65;30.67;;;;;;;-144.15;0.00;65763.66;10319453;28;20412;-61
2020/12/01 12:37:40;;;;;;;56.33;28.88;;;;;;;-144.15;0.00;65763.66;10319800;28;20079;-62
2020/12/01 12:42:38;;;;;;;395.58;242.52;;;;;;;-144.15;0.00;65763.66;10319530;28;20079;-63
2020/12/01 12:47:35;;;;;;;84.03;52.85;;;;;;;-144.15;0.00;65763.66;10319710;28;20094;-61
2020/12/01 12:52:33;;;;;;;66.60;31.15;;;;;;;-144.15;0.00;65763.66;10320092;28;20048;-61
2020/12/01 12:57:32;;;;;;;120.35;38.17;;;;;;;-144.15;0.00;65763.66;10318824;28;20154;-62
2020/12/01 13:02:30;;;;;;;97.07;52.08;;;;;;;-144.15;0.00;65763.66;10318234;28;20053;-61
2020/12/01 13:07:28;;;;;;;83.45;45.20;;;;;;;-144.15;0.00;65763.66;10318602;28;20076;-61
2020/12/01 13:12:26;;;;;;;93.68;36.67;;;;;;;-144.15;0.00;65763.66;10318946;28;20075;-61
2020/12/01 13:17:24;;;;;;;65.57;39.10;;;;;;;-144.15;0.00;65763.66;10318125;28;20520;-61
2020/12/01 13:22:22;;;;;;;119.55;27.33;;;;;;;-144.15;0.00;65763.66;10333249;28;20072;-61
2020/12/01 13:27:20;;;;;;;84.55;39.78;;;;;;;-144.15;0.00;65763.66;10357870;28;20091;-62
2020/12/01 13:32:17;;;;;;;98.78;40.55;;;;;;;-144.15;0.00;65763.66;10358939;28;20079;-62
2020/12/01 13:37:16;;;;;;;345.17;98.15;;;;;;;-144.15;0.00;65763.66;10359114;28;20067;-61
2020/12/01 13:42:14;;;;;;;74.65;24.02;;;;;;;-144.15;0.00;65763.66;10358668;28;20040;-62
2020/12/01 13:47:12;;;;;;;253.02;55.90;;;;;;;-144.15;0.00;65763.66;10358433;28;20078;-61
2020/12/01 13:52:10;;;;;;;462.75;180.75;;;;;;;-144.15;0.00;65763.66;10358458;28;20076;-62
2020/12/01 13:57:10;;;;;;;223.85;92.38;;;;;;;-144.15;0.00;65763.66;10357074;28;20051;-62
2020/12/01 14:02:08;;;;;;;239.48;99.85;;;;;;;-144.15;0.00;65763.66;10357484;28;20063;-62
2020/12/01 14:07:05;;;;;;;120.85;58.08;;;;;;;-144.15;0.00;65763.66;10357395;28;20083;-62
2020/12/01 14:12:03;;;;;;;147.82;69.15;;;;;;;-144.15;0.00;65763.66;10357341;28;20095;-62
2020/12/01 14:17:03;;;;;;;338.02;47.75;;;;;;;-144.15;0.00;65763.66;10356861;28;20068;-62
2020/12/01 14:22:01;;;;;;;106.90;24.55;;;;;;;-144.15;0.00;65763.66;10356271;28;20075;-63
2020/12/01 14:26:58;;;;;;;131.93;34.15;;;;;;;-144.15;0.00;65763.66;10356541;28;20094;-62
2020/12/01 14:31:56;;;;;;;161.75;28.02;;;;;;;-144.15;0.00;65763.66;10356784;28;20070;-62
2020/12/01 14:36:55;;;;;;;338.92;62.08;;;;;;;-144.15;0.00;65763.66;10356251;28;20067;-62
2020/12/01 14:42:02;;;;;;;237.93;46.70;;;;;;;-144.15;0.00;65763.66;10356835;28;20055;-61
2020/12/01 14:47:19;;;;;;;134.45;32.00;;;;;;;-144.15;0.00;65763.66;10342028;28;20087;-61
2020/12/01 14:52:24;;;;;;;139.85;35.65;;;;;;;-144.15;0.00;65763.66;10314957;28;20068;-62
2020/12/01 14:57:38;;;;;;;160.10;45.47;;;;;;;-144.15;0.00;65763.66;10315324;28;20064;-61
2020/12/01 15:02:59;;;;;;;147.68;46.28;;;;;;;-144.15;0.00;65763.66;10315139;28;20044;-61
2020/12/01 15:08:28;;;;;;;134.50;27.75;;;;;;;-144.15;0.00;65763.66;10315449;28;20087;-63
2020/12/01 15:13:27;;;;;;;138.73;45.80;;;;;;;-144.15;0.00;65763.66;10314840;28;20063;-61
2020/12/01 15:18:27;;;;;;;93.45;42.25;;;;;;;-144.15;0.00;65763.66;10314837;28;20087;-60
2020/12/01 15:23:33;;;;;;;96.75;42.92;;;;;;;-144.15;0.00;65763.66;10325205;28;20044;-62
2020/12/01 15:28:35;;;;;;;154.30;58.13;;;;;;;-144.15;0.00;65763.66;10330380;28;20063;-61
2020/12/01 15:33:34;;;;;;;133.00;40.05;;;;;;;-144.15;0.00;65763.66;10344158;28;20074;-61
2020/12/01 15:38:36;;;;;;;150.40;47.08;;;;;;;-144.15;0.00;65763.66;10334147;28;20071;-61
2020/12/01 15:43:36;;;;;;;93.65;45.80;;;;;;;-144.15;0.00;65763.66;10336422;28;20047;-60
2020/12/01 15:48:34;;;;;;;183.75;45.28;;;;;;;-144.15;0.00;65763.66;10332957;28;20068;-60
2020/12/01 15:53:43;;;;;;;91.15;35.72;;;;;;;-144.15;0.00;65763.66;10323570;28;20068;-60
2020/12/01 15:59:21;;;;;;;156.77;53.42;;;;;;;-144.15;0.00;65763.66;10323162;28;20061;-60
2020/12/01 16:04:58;;;;;;;179.27;46.08;;;;;;;-144.15;0.00;65763.66;10323289;28;20040;-62
2020/12/01 16:10:09;;;;;;;182.10;52.17;;;;;;;-144.15;0.00;65763.66;10314875;28;20375;-61
2020/12/01 16:15:30;;;;;;;170.35;55.97;;;;;;;-144.15;0.00;65763.66;10323077;28;20075;-62
2020/12/01 16:20:35;;;;;;;136.43;52.97;;;;;;;-144.15;0.00;65763.66;10323061;28;20079;-62
2020/12/01 16:25:34;;;;;;;;;;;;;;;-144.15;0.00;65763.66;10323412;28;20041;-60
2020/12/01 16:30:35;;;;;;;93.85;40.53;;;;;;;-144.15;0.00;65763.66;10322521;28;19963;-62
2020/12/01 16:35:33;;;;;;;437.45;219.95;;;;;;;-144.15;0.00;65763.66;10322600;28;20051;-63
2020/12/01 16:40:41;;;;;;;119.40;41.50;;;;;;;-144.15;0.00;65763.66;10322243;28;20120;-61
2020/12/01 16:45:52;;;;;;;164.70;58.28;;;;;;;-144.15;0.00;65763.66;10321058;28;20520;-62
2020/12/01 16:50:56;;;;;;;185.05;50.97;;;;;;;-144.15;0.00;65763.66;10321692;28;20075;-60
2020/12/01 16:55:59;;;;;;;172.25;45.58;;;;;;;-144.15;0.00;65763.66;10321675;28;20045;-60
2020/12/01 17:01:09;;;;;;;96.00;33.95;;;;;;;-144.15;0.00;65763.66;10320964;28;20084;-60
2020/12/01 17:06:17;;;;;;;110.07;41.00;;;;;;;-144.15;0.00;65763.66;10321536;28;20074;-61
2020/12/01 17:11:17;;;;;;;124.00;61.85;;;;;;;-144.15;0.00;65763.66;10321282;28;20509;-62
2020/12/01 17:16:45;;;;;;;89.50;30.25;;;;;;;-144.15;0.00;65763.66;10319509;28;20147;-62
2020/12/01 17:21:45;;;;;;;91.93;26.52;;;;;;;-144.15;0.00;65763.66;10302137;28;20513;-62
2020/12/01 17:26:47;;;;;;;99.40;25.88;;;;;;;-144.15;0.00;65763.66;10320144;28;20517;-61
2020/12/01 17:31:47;;;;;;;130.88;65.60;;;;;;;-144.15;0.00;65763.66;10319338;28;20051;-60
2020/12/01 17:36:49;;;;;;;58.85;28.98;;;;;;;-144.15;0.00;65763.66;10319574;28;20043;-62
2020/12/01 17:41:58;;;;;;;146.15;29.65;;;;;;;-144.15;0.00;65763.66;10318945;28;20452;-61
2020/12/01 17:47:09;;;;;;;163.60;39.78;;;;;;;-144.15;0.00;65763.66;10318771;28;20068;-62
2020/12/01 17:52:21;;;;;;;94.30;50.05;;;;;;;-144.15;0.00;65763.66;10318468;28;20490;-62
2020/12/01 17:57:20;;;;;;;194.18;85.57;;;;;;;-144.15;0.00;65763.66;10348569;28;20154;-61
2020/12/01 18:02:19;;;;;;;63.88;34.15;;;;;;;-144.15;0.00;65763.66;10329458;28;20718;-60
2020/12/01 18:07:20;;;;;;;82.50;42.20;;;;;;;-144.15;0.00;65763.66;10330864;28;20082;-60
2020/12/01 18:12:39;;;;;;;142.43;35.38;;;;;;;-144.15;0.00;65763.66;10327120;28;20088;-60
2020/12/01 18:17:51;;;;;;;89.35;39.55;;;;;;;-144.15;0.00;65763.66;10324721;28;20083;-62
2020/12/01 18:23:37;;;;;;;104.50;31.17;;;;;;;-144.15;0.00;65763.66;10335396;28;20055;-59
2020/12/01 18:28:40;;;;;;;254.25;46.35;;;;;;;-144.15;0.00;65763.66;10293627;28;20076;-62
2020/12/01 18:33:46;;;;;;;105.85;35.38;;;;;;;-144.15;0.00;65763.66;10317212;28;20420;-61
2020/12/01 18:38:45;;;;;;;74.32;43.33;;;;;;;-144.15;0.00;65763.66;10317234;28;20080;-62
2020/12/01 18:43:52;;;;;;;188.07;97.72;;;;;;;-144.15;0.00;65763.66;10316915;28;20047;-61
2020/12/01 18:48:50;;;;;;;41.92;25.50;;;;;;;-144.15;0.00;65763.66;10327392;28;20081;-62
2020/12/01 18:53:48;;;;;;;88.05;49.20;;;;;;;-144.15;0.00;65763.66;10321243;28;20071;-62
2020/12/01 18:58:50;;;;;;;78.68;38.47;;;;;;;-144.15;0.00;65763.66;10316182;28;20053;-62
2020/12/01 19:03:50;;;;;;;103.07;37.75;;;;;;;-144.15;0.00;65763.66;10316607;28;20052;-63
2020/12/01 19:08:50;;;;;;;61.72;26.70;;;;;;;-144.15;0.00;65763.66;10315785;28;20084;-63
2020/12/01 19:13:49;;;;;;;56.05;24.17;;;;;;;-144.15;0.00;65763.66;10316061;28;20040;-62
2020/12/01 19:18:47;;;;;;;61.58;28.55;;;;;;;-144.15;0.00;65763.66;10316754;28;20084;-61
2020/12/01 19:23:46;;;;;;;252.40;134.90;;;;;;;-144.15;0.00;65763.66;10316333;28;20438;-62
2020/12/01 19:28:45;;;;;;;95.40;40.33;;;;;;;-144.15;0.00;65763.66;10316308;28;20083;-63
2020/12/01 19:33:43;;;;;;;179.77;57.28;;;;;;;-144.15;0.00;65763.66;10316404;28;20401;-62
2020/12/01 19:38:41;;;;;;;111.45;41.78;;;;;;;-144.15;0.00;65763.66;10315697;28;20041;-62
2020/12/01 19:43:39;;;;;;;99.28;35.03;;;;;;;-144.15;0.00;65763.66;10315903;28;20041;-63
2020/12/01 19:48:37;;;;;;;114.35;49.15;;;;;;;-144.15;0.00;65763.66;10315618;28;20465;-63
2020/12/01 19:53:36;;;;;;;216.10;45.63;;;;;;;-144.15;0.00;65763.66;10316168;28;20079;-62
2020/12/01 19:58:34;;;;;;;107.57;42.22;;;;;;;-144.15;0.00;65763.66;10315237;28;20090;-62
2020/12/01 20:03:31;;;;;;;69.40;34.22;;;;;;;-144.15;0.00;65763.66;10315463;28;20068;-67
2020/12/01 20:08:29;;;;;;;79.60;38.33;;;;;;;-144.15;0.00;65763.66;10315428;28;20076;-63
2020/12/01 20:13:28;;;;;;;190.60;64.95;;;;;;;-144.15;0.00;65763.66;10313611;28;20060;-62
2020/12/01 20:18:25;;;;;;;98.72;31.77;;;;;;;-144.15;0.00;65763.66;10316273;28;20409;-63
2020/12/01 20:23:23;;;;;;;109.68;37.65;;;;;;;-144.15;0.00;65763.66;10322849;28;20049;-62
2020/12/01 20:28:21;;;;;;;176.10;51.95;;;;;;;-144.15;0.00;65763.66;10322334;28;20083;-62
2020/12/01 20:33:23;;;;;;;102.88;46.95;;;;;;;-144.15;0.00;65763.66;10321124;28;20445;-63
2020/12/01 20:38:54;;;;;;;90.47;44.72;;;;;;;-144.15;0.00;65763.66;10321666;28;20037;-62
2020/12/01 20:43:53;;;;;;;83.57;34.50;;;;;;;-144.15;0.00;65763.66;10317521;28;20064;-67
2020/12/01 20:48:52;;;;;;;61.47;26.35;;;;;;;-144.15;0.00;65763.66;10321517;28;20564;-62
2020/12/01 20:53:54;;;;;;;82.78;34.20;;;;;;;-144.15;0.00;65763.66;10321538;28;20044;-65
2020/12/01 20:58:53;;;;;;;98.97;37.28;;;;;;;-144.15;0.00;65763.66;10321173;28;20059;-61
2020/12/01 21:03:52;;;;;;;57.92;33.10;;;;;;;-144.15;0.00;65763.66;10321167;28;20052;-61
2020/12/01 21:09:04;;;;;;;250.40;154.68;;;;;;;-144.15;0.00;65763.66;10320010;28;20096;-68
2020/12/01 21:14:03;;;;;;;108.40;72.35;;;;;;;-144.15;0.00;65763.66;10320831;28;20051;-63
2020/12/01 21:19:04;;;;;;;56.35;34.33;;;;;;;-144.15;0.00;65763.66;10320630;28;20409;-61
2020/12/01 21:24:04;;;;;;;58.13;30.52;;;;;;;-144.15;0.00;65763.66;10320635;28;20085;-61
2020/12/01 21:29:04;;;;;;;89.80;40.50;;;;;;;-144.15;0.00;65763.66;10319626;28;20650;-64
2020/12/01 21:34:09;;;;;;;46.50;24.60;;;;;;;-144.15;0.00;65763.66;10319999;28;20071;-63
2020/12/01 21:39:10;;;;;;;41.60;20.63;;;;;;;-144.15;0.00;65763.66;10319794;28;20051;-63
2020/12/01 21:44:16;;;;;;;36.92;22.45;;;;;;;-144.15;0.00;65763.66;10319503;28;20294;-62
2020/12/01 21:49:15;;;;;;;38.08;22.35;;;;;;;-144.15;0.00;65763.66;10319299;28;20076;-63
2020/12/01 21:54:28;;;;;;;41.17;24.60;;;;;;;-144.15;0.00;65763.66;10319447;28;20515;-62
2020/12/01 21:59:51;;;;;;;37.00;21.10;;;;;;;-144.15;0.00;65763.66;10318250;28;20115;-62
2020/12/01 22:05:30;;;;;;;34.10;19.08;;;;;;;-144.15;0.00;65763.66;10319052;28;20506;-62
2020/12/01 22:10:35;;;;;;;51.80;27.63;;;;;;;-144.15;0.00;65763.66;10318772;28;20087;-63
2020/12/01 22:15:40;;;;;;;39.13;20.05;;;;;;;-144.15;0.00;65763.66;10318681;28;20111;-65
2020/12/01 22:20:44;;;;;;;80.17;48.13;;;;;;;-144.15;0.00;65763.66;10318727;28;20485;-62
2020/12/01 22:25:49;;;;;;;63.03;32.45;;;;;;;-144.15;0.00;65763.66;10318750;28;20516;-62
2020/12/01 22:31:06;;;;;;;77.65;46.05;;;;;;;-144.15;0.00;65763.66;10328962;28;20103;-63
2020/12/01 22:36:11;;;;;;;57.58;24.17;;;;;;;-144.15;0.00;65763.66;10336462;28;20071;-64
2020/12/01 22:41:26;;;;;;;78.93;33.13;;;;;;;-144.15;0.00;65763.66;10316245;28;20056;-62
2020/12/01 22:46:32;;;;;;;59.30;30.15;;;;;;;-144.15;0.00;65763.66;10316947;28;20068;-62
2020/12/01 22:52:11;;;;;;;54.65;28.13;;;;;;;-144.15;0.00;65763.66;10317695;28;20091;-64
2020/12/01 22:57:40;;;;;;;51.33;28.23;;;;;;;-144.15;0.00;65763.66;10316335;28;20041;-62
2020/12/01 23:02:38;;;;;;;42.25;22.90;;;;;;;-144.15;0.00;65763.66;10316659;28;20048;-63
2020/12/01 23:07:59;;;;;;;43.28;23.55;;;;;;;-144.15;0.00;65763.66;10316303;28;20140;-61
2020/12/01 23:13:04;;;;;;;112.53;30.60;;;;;;;-144.15;0.00;65763.66;10316447;28;20045;-61
2020/12/01 23:18:02;;;;;;;84.10;27.53;;;;;;;-144.15;0.00;65763.66;10316692;28;20425;-62